Big Branch, Kentucky
Current Conditions -  °F | °C
As of 7:15 AM on Sunday 23 Nov 2014 (Local Time) from KPBX Reporting Station
Broken Clouds Broken Clouds  
Wind Chill: 52°   Ceiling: 11000
Heat Index: 52°   Visibility: 10mi
Dew Point: 37°   Wind: 7mph
Humidity: 56%   Direction: 150°SSE
Pressure: 30.07"   Gusts: NA
Location:  37.3089°N, 82.3418°W
Report Text: KPBX 231215Z AUTO 15006KT 10SM BKN110 11/03 A3007 RMK AO2 T01120028
Loading
Personal Weather Stations






























Interactive Weather Map New forecast layout! Learn more

10-Day Weather Forecast

Advertisements
Track Severe Weather on mobile